sensor_id;sensor_type;location;lat;lon;timestamp;P1;durP1;ratioP1;P2;durP2;ratioP2
9420;SDS011;4749;51.398;5.466;2022-09-21T00:01:27;4.63;;;3.60;;
9420;SDS011;4749;51.398;5.466;2022-09-21T00:03:57;10.23;;;4.30;;
9420;SDS011;4749;51.398;5.466;2022-09-21T00:06:29;6.83;;;4.13;;
9420;SDS011;4749;51.398;5.466;2022-09-21T00:08:59;5.73;;;3.73;;
9420;SDS011;4749;51.398;5.466;2022-09-21T00:11:29;6.53;;;3.55;;
9420;SDS011;4749;51.398;5.466;2022-09-21T00:14:00;7.50;;;4.37;;
9420;SDS011;4749;51.398;5.466;2022-09-21T00:16:32;5.70;;;3.90;;
9420;SDS011;4749;51.398;5.466;2022-09-21T00:19:00;5.17;;;3.70;;
9420;SDS011;4749;51.398;5.466;2022-09-21T00:21:29;12.20;;;4.13;;
9420;SDS011;4749;51.398;5.466;2022-09-21T00:23:57;9.37;;;4.07;;
9420;SDS011;4749;51.398;5.466;2022-09-21T00:26:25;7.13;;;3.77;;
9420;SDS011;4749;51.398;5.466;2022-09-21T00:28:55;5.53;;;3.90;;
9420;SDS011;4749;51.398;5.466;2022-09-21T00:31:25;8.67;;;4.13;;
9420;SDS011;4749;51.398;5.466;2022-09-21T00:33:55;5.70;;;3.97;;
9420;SDS011;4749;51.398;5.466;2022-09-21T00:36:26;6.37;;;3.50;;
9420;SDS011;4749;51.398;5.466;2022-09-21T00:38:55;4.77;;;3.27;;
9420;SDS011;4749;51.398;5.466;2022-09-21T00:41:28;9.63;;;3.63;;
9420;SDS011;4749;51.398;5.466;2022-09-21T00:46:48;6.23;;;3.23;;
9420;SDS011;4749;51.398;5.466;2022-09-21T00:49:18;7.33;;;3.57;;
9420;SDS011;4749;51.398;5.466;2022-09-21T00:51:47;10.50;;;3.60;;
9420;SDS011;4749;51.398;5.466;2022-09-21T00:54:26;7.40;;;3.70;;
9420;SDS011;4749;51.398;5.466;2022-09-21T00:56:59;6.83;;;3.43;;
9420;SDS011;4749;51.398;5.466;2022-09-21T00:59:31;5.80;;;3.50;;
9420;SDS011;4749;51.398;5.466;2022-09-21T01:02:03;5.87;;;3.00;;
9420;SDS011;4749;51.398;5.466;2022-09-21T01:04:31;6.27;;;3.67;;
9420;SDS011;4749;51.398;5.466;2022-09-21T01:07:02;5.53;;;3.47;;
9420;SDS011;4749;51.398;5.466;2022-09-21T01:09:38;5.47;;;3.80;;
9420;SDS011;4749;51.398;5.466;2022-09-21T01:15:27;5.17;;;3.40;;
9420;SDS011;4749;51.398;5.466;2022-09-21T01:21:20;7.97;;;3.77;;
9420;SDS011;4749;51.398;5.466;2022-09-21T01:30:03;6.00;;;3.53;;
9420;SDS011;4749;51.398;5.466;2022-09-21T01:35:15;4.70;;;3.33;;
9420;SDS011;4749;51.398;5.466;2022-09-21T01:37:54;9.23;;;3.93;;
9420;SDS011;4749;51.398;5.466;2022-09-21T01:40:33;5.93;;;4.17;;
9420;SDS011;4749;51.398;5.466;2022-09-21T01:43:05;6.40;;;3.73;;
9420;SDS011;4749;51.398;5.466;2022-09-21T01:45:42;7.47;;;3.70;;
9420;SDS011;4749;51.398;5.466;2022-09-21T01:48:15;5.00;;;3.60;;
9420;SDS011;4749;51.398;5.466;2022-09-21T01:50:46;6.90;;;3.80;;
9420;SDS011;4749;51.398;5.466;2022-09-21T01:55:55;5.23;;;3.63;;
9420;SDS011;4749;51.398;5.466;2022-09-21T01:58:31;6.00;;;3.57;;
9420;SDS011;4749;51.398;5.466;2022-09-21T02:01:17;5.80;;;3.60;;
9420;SDS011;4749;51.398;5.466;2022-09-21T02:03:53;4.53;;;3.07;;
9420;SDS011;4749;51.398;5.466;2022-09-21T02:06:36;6.10;;;3.70;;
9420;SDS011;4749;51.398;5.466;2022-09-21T02:09:07;7.50;;;3.40;;
9420;SDS011;4749;51.398;5.466;2022-09-21T02:11:36;5.33;;;3.40;;
9420;SDS011;4749;51.398;5.466;2022-09-21T02:14:18;6.93;;;3.90;;
9420;SDS011;4749;51.398;5.466;2022-09-21T02:19:33;4.97;;;3.93;;
9420;SDS011;4749;51.398;5.466;2022-09-21T02:22:17;6.23;;;3.80;;
9420;SDS011;4749;51.398;5.466;2022-09-21T02:25:04;8.10;;;3.50;;
9420;SDS011;4749;51.398;5.466;2022-09-21T02:27:52;4.13;;;3.50;;
9420;SDS011;4749;51.398;5.466;2022-09-21T02:30:21;7.60;;;3.67;;
9420;SDS011;4749;51.398;5.466;2022-09-21T02:36:38;5.80;;;3.70;;
9420;SDS011;4749;51.398;5.466;2022-09-21T02:39:16;6.40;;;3.27;;
9420;SDS011;4749;51.398;5.466;2022-09-21T02:44:40;5.73;;;3.30;;
9420;SDS011;4749;51.398;5.466;2022-09-21T02:47:27;6.10;;;3.60;;
9420;SDS011;4749;51.398;5.466;2022-09-21T02:50:03;7.40;;;3.50;;
9420;SDS011;4749;51.398;5.466;2022-09-21T02:52:45;5.77;;;3.23;;
9420;SDS011;4749;51.398;5.466;2022-09-21T02:55:13;9.60;;;3.63;;
9420;SDS011;4749;51.398;5.466;2022-09-21T02:57:43;5.03;;;3.30;;
9420;SDS011;4749;51.398;5.466;2022-09-21T03:00:14;7.30;;;3.50;;
9420;SDS011;4749;51.398;5.466;2022-09-21T03:02:43;6.00;;;3.50;;
9420;SDS011;4749;51.398;5.466;2022-09-21T03:05:12;4.47;;;3.67;;
9420;SDS011;4749;51.398;5.466;2022-09-21T03:07:40;6.47;;;3.77;;
9420;SDS011;4749;51.398;5.466;2022-09-21T03:10:08;10.50;;;3.53;;
9420;SDS011;4749;51.398;5.466;2022-09-21T03:12:36;8.87;;;3.70;;
9420;SDS011;4749;51.398;5.466;2022-09-21T03:15:03;5.93;;;3.20;;
9420;SDS011;4749;51.398;5.466;2022-09-21T03:17:31;7.27;;;3.70;;
9420;SDS011;4749;51.398;5.466;2022-09-21T03:19:59;5.90;;;3.57;;
9420;SDS011;4749;51.398;5.466;2022-09-21T03:22:27;5.93;;;3.57;;
9420;SDS011;4749;51.398;5.466;2022-09-21T03:24:55;7.87;;;3.60;;
9420;SDS011;4749;51.398;5.466;2022-09-21T03:27:23;5.17;;;3.47;;
9420;SDS011;4749;51.398;5.466;2022-09-21T03:29:50;5.93;;;3.63;;
9420;SDS011;4749;51.398;5.466;2022-09-21T03:32:18;6.27;;;3.20;;
9420;SDS011;4749;51.398;5.466;2022-09-21T03:34:45;7.47;;;3.73;;
9420;SDS011;4749;51.398;5.466;2022-09-21T03:37:12;5.47;;;2.80;;
9420;SDS011;4749;51.398;5.466;2022-09-21T03:39:40;3.77;;;3.07;;
9420;SDS011;4749;51.398;5.466;2022-09-21T03:42:10;3.90;;;3.40;;
9420;SDS011;4749;51.398;5.466;2022-09-21T03:44:39;5.77;;;3.17;;
9420;SDS011;4749;51.398;5.466;2022-09-21T03:47:07;5.13;;;3.40;;
9420;SDS011;4749;51.398;5.466;2022-09-21T03:49:34;8.40;;;3.50;;
9420;SDS011;4749;51.398;5.466;2022-09-21T03:52:02;6.73;;;3.23;;
9420;SDS011;4749;51.398;5.466;2022-09-21T03:54:29;6.17;;;3.17;;
9420;SDS011;4749;51.398;5.466;2022-09-21T03:56:57;6.03;;;3.63;;
9420;SDS011;4749;51.398;5.466;2022-09-21T03:59:24;6.77;;;4.03;;
9420;SDS011;4749;51.398;5.466;2022-09-21T04:01:51;5.07;;;3.60;;
9420;SDS011;4749;51.398;5.466;2022-09-21T04:04:19;5.10;;;3.53;;
9420;SDS011;4749;51.398;5.466;2022-09-21T04:06:47;5.10;;;3.40;;
9420;SDS011;4749;51.398;5.466;2022-09-21T04:09:14;7.63;;;3.40;;
9420;SDS011;4749;51.398;5.466;2022-09-21T04:11:43;7.37;;;3.50;;
9420;SDS011;4749;51.398;5.466;2022-09-21T04:14:11;5.97;;;3.70;;
9420;SDS011;4749;51.398;5.466;2022-09-21T04:16:39;4.93;;;3.30;;
9420;SDS011;4749;51.398;5.466;2022-09-21T04:19:06;6.10;;;3.80;;
9420;SDS011;4749;51.398;5.466;2022-09-21T04:21:34;4.63;;;3.43;;
9420;SDS011;4749;51.398;5.466;2022-09-21T04:24:01;9.43;;;3.53;;
9420;SDS011;4749;51.398;5.466;2022-09-21T04:26:31;8.10;;;3.70;;
9420;SDS011;4749;51.398;5.466;2022-09-21T04:29:00;7.20;;;3.23;;
9420;SDS011;4749;51.398;5.466;2022-09-21T04:31:28;5.70;;;3.77;;
9420;SDS011;4749;51.398;5.466;2022-09-21T04:33:56;8.30;;;3.97;;
9420;SDS011;4749;51.398;5.466;2022-09-21T04:36:24;5.67;;;4.27;;
9420;SDS011;4749;51.398;5.466;2022-09-21T04:38:56;5.67;;;3.60;;
9420;SDS011;4749;51.398;5.466;2022-09-21T04:41:26;8.43;;;4.03;;
9420;SDS011;4749;51.398;5.466;2022-09-21T04:43:54;5.60;;;3.97;;
9420;SDS011;4749;51.398;5.466;2022-09-21T04:46:21;5.60;;;4.27;;
9420;SDS011;4749;51.398;5.466;2022-09-21T04:48:48;6.57;;;3.60;;
9420;SDS011;4749;51.398;5.466;2022-09-21T04:51:16;11.20;;;4.47;;
9420;SDS011;4749;51.398;5.466;2022-09-21T04:53:43;5.60;;;3.77;;
9420;SDS011;4749;51.398;5.466;2022-09-21T04:56:14;6.67;;;3.97;;
9420;SDS011;4749;51.398;5.466;2022-09-21T04:58:42;6.30;;;4.10;;
9420;SDS011;4749;51.398;5.466;2022-09-21T05:01:10;5.87;;;3.87;;
9420;SDS011;4749;51.398;5.466;2022-09-21T05:03:37;4.57;;;3.67;;
9420;SDS011;4749;51.398;5.466;2022-09-21T05:06:05;4.77;;;3.93;;
9420;SDS011;4749;51.398;5.466;2022-09-21T05:08:33;6.83;;;3.97;;
9420;SDS011;4749;51.398;5.466;2022-09-21T05:11:19;4.83;;;3.97;;
9420;SDS011;4749;51.398;5.466;2022-09-21T05:13:46;6.07;;;3.67;;
9420;SDS011;4749;51.398;5.466;2022-09-21T05:16:14;5.33;;;3.63;;
9420;SDS011;4749;51.398;5.466;2022-09-21T05:18:44;6.07;;;4.10;;
9420;SDS011;4749;51.398;5.466;2022-09-21T05:21:12;5.93;;;4.43;;
9420;SDS011;4749;51.398;5.466;2022-09-21T05:23:40;9.47;;;4.67;;
9420;SDS011;4749;51.398;5.466;2022-09-21T05:26:08;6.80;;;4.27;;
9420;SDS011;4749;51.398;5.466;2022-09-21T05:28:35;9.37;;;4.90;;
9420;SDS011;4749;51.398;5.466;2022-09-21T05:37:36;6.30;;;4.13;;
9420;SDS011;4749;51.398;5.466;2022-09-21T05:40:22;5.20;;;3.87;;
9420;SDS011;4749;51.398;5.466;2022-09-21T05:42:50;6.10;;;4.23;;
9420;SDS011;4749;51.398;5.466;2022-09-21T05:45:18;6.23;;;4.40;;
9420;SDS011;4749;51.398;5.466;2022-09-21T05:53:32;5.93;;;4.07;;
9420;SDS011;4749;51.398;5.466;2022-09-21T05:56:42;9.30;;;4.20;;
9420;SDS011;4749;51.398;5.466;2022-09-21T06:05:16;7.03;;;4.60;;
9420;SDS011;4749;51.398;5.466;2022-09-21T06:07:44;5.83;;;3.90;;
9420;SDS011;4749;51.398;5.466;2022-09-21T06:10:12;8.73;;;4.70;;
9420;SDS011;4749;51.398;5.466;2022-09-21T06:12:41;8.30;;;4.50;;
9420;SDS011;4749;51.398;5.466;2022-09-21T06:15:10;9.73;;;7.97;;
9420;SDS011;4749;51.398;5.466;2022-09-21T06:17:39;11.43;;;5.40;;
9420;SDS011;4749;51.398;5.466;2022-09-21T06:20:08;5.93;;;4.80;;
9420;SDS011;4749;51.398;5.466;2022-09-21T06:22:36;8.80;;;4.60;;
9420;SDS011;4749;51.398;5.466;2022-09-21T06:25:03;5.50;;;4.37;;
9420;SDS011;4749;51.398;5.466;2022-09-21T06:27:31;9.40;;;4.50;;
9420;SDS011;4749;51.398;5.466;2022-09-21T06:29:59;7.43;;;4.67;;
9420;SDS011;4749;51.398;5.466;2022-09-21T06:32:29;11.33;;;4.80;;
9420;SDS011;4749;51.398;5.466;2022-09-21T06:34:57;6.07;;;4.80;;
9420;SDS011;4749;51.398;5.466;2022-09-21T06:37:24;7.80;;;4.90;;
9420;SDS011;4749;51.398;5.466;2022-09-21T06:39:52;8.98;;;4.90;;
9420;SDS011;4749;51.398;5.466;2022-09-21T06:42:19;10.18;;;5.80;;
9420;SDS011;4749;51.398;5.466;2022-09-21T06:44:46;12.10;;;6.05;;
9420;SDS011;4749;51.398;5.466;2022-09-21T06:47:14;7.47;;;6.22;;
9420;SDS011;4749;51.398;5.466;2022-09-21T06:49:41;13.45;;;7.22;;
9420;SDS011;4749;51.398;5.466;2022-09-21T06:52:09;10.57;;;7.20;;
9420;SDS011;4749;51.398;5.466;2022-09-21T06:54:38;15.15;;;7.53;;
9420;SDS011;4749;51.398;5.466;2022-09-21T06:57:06;12.55;;;7.40;;
9420;SDS011;4749;51.398;5.466;2022-09-21T06:59:34;15.63;;;8.15;;
9420;SDS011;4749;51.398;5.466;2022-09-21T07:02:01;12.07;;;7.70;;
9420;SDS011;4749;51.398;5.466;2022-09-21T07:04:29;11.77;;;7.53;;
9420;SDS011;4749;51.398;5.466;2022-09-21T07:06:57;14.82;;;7.78;;
9420;SDS011;4749;51.398;5.466;2022-09-21T07:09:28;12.75;;;8.57;;
9420;SDS011;4749;51.398;5.466;2022-09-21T07:12:15;13.77;;;8.98;;
9420;SDS011;4749;51.398;5.466;2022-09-21T07:14:43;11.98;;;8.00;;
9420;SDS011;4749;51.398;5.466;2022-09-21T07:17:11;14.75;;;8.70;;
9420;SDS011;4749;51.398;5.466;2022-09-21T07:19:41;16.50;;;9.02;;
9420;SDS011;4749;51.398;5.466;2022-09-21T07:22:09;12.10;;;8.63;;
9420;SDS011;4749;51.398;5.466;2022-09-21T07:24:36;18.35;;;8.90;;
9420;SDS011;4749;51.398;5.466;2022-09-21T07:27:03;13.85;;;8.13;;
9420;SDS011;4749;51.398;5.466;2022-09-21T07:29:31;12.98;;;8.75;;
9420;SDS011;4749;51.398;5.466;2022-09-21T07:31:58;8.43;;;6.25;;
9420;SDS011;4749;51.398;5.466;2022-09-21T07:34:25;11.57;;;7.90;;
9420;SDS011;4749;51.398;5.466;2022-09-21T07:36:53;10.75;;;8.00;;
9420;SDS011;4749;51.398;5.466;2022-09-21T07:39:20;8.02;;;7.20;;
9420;SDS011;4749;51.398;5.466;2022-09-21T07:41:49;12.60;;;7.53;;
9420;SDS011;4749;51.398;5.466;2022-09-21T07:44:17;13.32;;;8.40;;
9420;SDS011;4749;51.398;5.466;2022-09-21T07:46:49;12.13;;;7.55;;
9420;SDS011;4749;51.398;5.466;2022-09-21T07:49:16;9.82;;;6.95;;
9420;SDS011;4749;51.398;5.466;2022-09-21T07:51:44;8.80;;;7.05;;
9420;SDS011;4749;51.398;5.466;2022-09-21T07:54:11;9.70;;;6.93;;
9420;SDS011;4749;51.398;5.466;2022-09-21T07:56:41;8.15;;;6.25;;
9420;SDS011;4749;51.398;5.466;2022-09-21T07:59:28;8.00;;;5.47;;
9420;SDS011;4749;51.398;5.466;2022-09-21T08:01:58;12.90;;;6.22;;
9420;SDS011;4749;51.398;5.466;2022-09-21T08:04:26;8.18;;;5.78;;
9420;SDS011;4749;51.398;5.466;2022-09-21T08:06:57;8.50;;;5.03;;
9420;SDS011;4749;51.398;5.466;2022-09-21T08:09:24;8.38;;;4.72;;
9420;SDS011;4749;51.398;5.466;2022-09-21T08:11:51;5.97;;;4.40;;
9420;SDS011;4749;51.398;5.466;2022-09-21T08:14:20;9.48;;;5.00;;
9420;SDS011;4749;51.398;5.466;2022-09-21T08:16:51;9.65;;;5.00;;
9420;SDS011;4749;51.398;5.466;2022-09-21T08:19:19;7.53;;;4.70;;
9420;SDS011;4749;51.398;5.466;2022-09-21T08:21:47;10.90;;;5.10;;
9420;SDS011;4749;51.398;5.466;2022-09-21T08:24:22;7.68;;;4.30;;
9420;SDS011;4749;51.398;5.466;2022-09-21T08:26:51;6.60;;;4.43;;
9420;SDS011;4749;51.398;5.466;2022-09-21T08:29:18;10.57;;;3.80;;
9420;SDS011;4749;51.398;5.466;2022-09-21T08:31:46;6.53;;;3.38;;
9420;SDS011;4749;51.398;5.466;2022-09-21T08:34:14;7.05;;;3.03;;
9420;SDS011;4749;51.398;5.466;2022-09-21T08:36:41;8.98;;;3.58;;
9420;SDS011;4749;51.398;5.466;2022-09-21T08:39:09;5.82;;;2.70;;
9420;SDS011;4749;51.398;5.466;2022-09-21T08:44:20;4.35;;;3.00;;
9420;SDS011;4749;51.398;5.466;2022-09-21T08:49:50;7.35;;;2.55;;
9420;SDS011;4749;51.398;5.466;2022-09-21T08:52:23;5.63;;;2.50;;
9420;SDS011;4749;51.398;5.466;2022-09-21T08:54:54;6.13;;;2.40;;
9420;SDS011;4749;51.398;5.466;2022-09-21T08:57:45;3.92;;;2.05;;
9420;SDS011;4749;51.398;5.466;2022-09-21T09:00:13;6.40;;;1.77;;
9420;SDS011;4749;51.398;5.466;2022-09-21T09:09:00;4.45;;;1.88;;
9420;SDS011;4749;51.398;5.466;2022-09-21T09:15:36;4.35;;;1.70;;
9420;SDS011;4749;51.398;5.466;2022-09-21T09:18:17;5.05;;;1.67;;
9420;SDS011;4749;51.398;5.466;2022-09-21T09:21:23;3.80;;;1.33;;
9420;SDS011;4749;51.398;5.466;2022-09-21T09:24:02;5.10;;;1.75;;
9420;SDS011;4749;51.398;5.466;2022-09-21T09:26:52;10.32;;;2.10;;
9420;SDS011;4749;51.398;5.466;2022-09-21T09:32:40;5.72;;;2.05;;
9420;SDS011;4749;51.398;5.466;2022-09-21T09:37:55;4.30;;;1.30;;
9420;SDS011;4749;51.398;5.466;2022-09-21T09:44:05;2.45;;;1.20;;
9420;SDS011;4749;51.398;5.466;2022-09-21T09:50:29;3.50;;;1.20;;
9420;SDS011;4749;51.398;5.466;2022-09-21T09:53:04;2.42;;;1.40;;
9420;SDS011;4749;51.398;5.466;2022-09-21T09:55:47;3.55;;;1.15;;
9420;SDS011;4749;51.398;5.466;2022-09-21T10:01:07;4.85;;;1.00;;
9420;SDS011;4749;51.398;5.466;2022-09-21T10:03:34;5.38;;;1.27;;
9420;SDS011;4749;51.398;5.466;2022-09-21T10:06:02;2.92;;;1.13;;
9420;SDS011;4749;51.398;5.466;2022-09-21T10:08:37;3.65;;;0.88;;
9420;SDS011;4749;51.398;5.466;2022-09-21T10:11:10;3.63;;;1.15;;
9420;SDS011;4749;51.398;5.466;2022-09-21T10:13:41;2.33;;;1.00;;
9420;SDS011;4749;51.398;5.466;2022-09-21T10:18:44;3.40;;;1.00;;
9420;SDS011;4749;51.398;5.466;2022-09-21T10:21:25;5.90;;;1.02;;
9420;SDS011;4749;51.398;5.466;2022-09-21T10:24:06;3.28;;;1.30;;
9420;SDS011;4749;51.398;5.466;2022-09-21T10:26:46;5.22;;;1.70;;
9420;SDS011;4749;51.398;5.466;2022-09-21T10:29:21;3.15;;;1.00;;
9420;SDS011;4749;51.398;5.466;2022-09-21T10:32:26;1.85;;;0.93;;
9420;SDS011;4749;51.398;5.466;2022-09-21T10:37:45;1.63;;;0.80;;
9420;SDS011;4749;51.398;5.466;2022-09-21T10:42:47;3.20;;;0.88;;
9420;SDS011;4749;51.398;5.466;2022-09-21T10:45:25;3.33;;;1.05;;
9420;SDS011;4749;51.398;5.466;2022-09-21T10:48:08;3.55;;;1.00;;
9420;SDS011;4749;51.398;5.466;2022-09-21T10:50:45;3.00;;;1.00;;
9420;SDS011;4749;51.398;5.466;2022-09-21T10:56:07;3.13;;;1.70;;
9420;SDS011;4749;51.398;5.466;2022-09-21T11:01:59;3.92;;;1.25;;
9420;SDS011;4749;51.398;5.466;2022-09-21T11:04:48;5.50;;;1.08;;
9420;SDS011;4749;51.398;5.466;2022-09-21T11:07:23;3.65;;;0.93;;
9420;SDS011;4749;51.398;5.466;2022-09-21T11:10:08;4.03;;;0.90;;
9420;SDS011;4749;51.398;5.466;2022-09-21T11:19:13;2.13;;;1.23;;
9420;SDS011;4749;51.398;5.466;2022-09-21T11:27:40;3.05;;;1.00;;
9420;SDS011;4749;51.398;5.466;2022-09-21T11:30:15;5.75;;;1.15;;
9420;SDS011;4749;51.398;5.466;2022-09-21T11:35:54;3.78;;;0.90;;
9420;SDS011;4749;51.398;5.466;2022-09-21T11:42:00;2.70;;;1.00;;
9420;SDS011;4749;51.398;5.466;2022-09-21T11:44:59;4.82;;;1.45;;
9420;SDS011;4749;51.398;5.466;2022-09-21T11:47:39;3.05;;;1.10;;
9420;SDS011;4749;51.398;5.466;2022-09-21T11:50:45;5.00;;;1.30;;
9420;SDS011;4749;51.398;5.466;2022-09-21T11:56:39;3.40;;;1.00;;
9420;SDS011;4749;51.398;5.466;2022-09-21T12:03:11;5.05;;;1.20;;
9420;SDS011;4749;51.398;5.466;2022-09-21T12:14:12;1.75;;;0.70;;
9420;SDS011;4749;51.398;5.466;2022-09-21T12:20:18;1.48;;;0.60;;
9420;SDS011;4749;51.398;5.466;2022-09-21T12:23:13;2.75;;;0.90;;
9420;SDS011;4749;51.398;5.466;2022-09-21T12:26:04;3.05;;;0.88;;
9420;SDS011;4749;51.398;5.466;2022-09-21T12:28:35;2.85;;;1.05;;
9420;SDS011;4749;51.398;5.466;2022-09-21T12:31:13;1.63;;;0.80;;
9420;SDS011;4749;51.398;5.466;2022-09-21T12:33:57;3.63;;;1.20;;
9420;SDS011;4749;51.398;5.466;2022-09-21T12:44:59;2.53;;;1.10;;
9420;SDS011;4749;51.398;5.466;2022-09-21T12:47:55;2.10;;;0.80;;
9420;SDS011;4749;51.398;5.466;2022-09-21T12:50:28;2.63;;;0.90;;
9420;SDS011;4749;51.398;5.466;2022-09-21T12:53:07;3.03;;;0.90;;
9420;SDS011;4749;51.398;5.466;2022-09-21T13:05:20;3.33;;;0.80;;
9420;SDS011;4749;51.398;5.466;2022-09-21T13:11:12;2.45;;;1.00;;
9420;SDS011;4749;51.398;5.466;2022-09-21T13:13:47;2.88;;;1.02;;
9420;SDS011;4749;51.398;5.466;2022-09-21T13:21:39;3.03;;;1.20;;
9420;SDS011;4749;51.398;5.466;2022-09-21T13:26:56;4.55;;;1.02;;
9420;SDS011;4749;51.398;5.466;2022-09-21T13:29:33;3.50;;;1.30;;
9420;SDS011;4749;51.398;5.466;2022-09-21T13:34:40;4.45;;;1.00;;
9420;SDS011;4749;51.398;5.466;2022-09-21T13:47:48;2.65;;;1.30;;
9420;SDS011;4749;51.398;5.466;2022-09-21T13:52:58;3.03;;;1.35;;
9420;SDS011;4749;51.398;5.466;2022-09-21T13:55:33;4.65;;;1.20;;
9420;SDS011;4749;51.398;5.466;2022-09-21T13:58:24;4.97;;;1.17;;
9420;SDS011;4749;51.398;5.466;2022-09-21T14:01:23;3.35;;;1.23;;
9420;SDS011;4749;51.398;5.466;2022-09-21T14:04:17;2.80;;;1.33;;
9420;SDS011;4749;51.398;5.466;2022-09-21T14:07:01;4.30;;;1.27;;
9420;SDS011;4749;51.398;5.466;2022-09-21T14:09:37;4.60;;;1.63;;
9420;SDS011;4749;51.398;5.466;2022-09-21T14:12:25;5.30;;;1.30;;
9420;SDS011;4749;51.398;5.466;2022-09-21T14:15:29;3.28;;;1.27;;
9420;SDS011;4749;51.398;5.466;2022-09-21T14:32:16;5.28;;;1.92;;
9420;SDS011;4749;51.398;5.466;2022-09-21T14:34:47;6.10;;;2.10;;
